Time;durP1;ratioP1;P1;durP2;ratioP2;P2;SDS_P1;SDS_P2;PMS_P1;PMS_P2;Temp;Humidity;BMP_temperature;BMP_pressure;BME280_temperature;BME280_humidity;BME280_pressure;Samples;Min_cycle;Max_cycle;Signal;HPM_P1;HPM_P2
2021/11/29 00:02:02;;;;;;;3.15;2.17;;;-10.80;99.90;;;;;;5115006;28;20395;-63
2021/11/29 00:04:28;;;;;;;1.52;1.42;;;-10.80;99.90;;;;;;5115039;28;20024;-63
2021/11/29 00:06:54;;;;;;;2.20;1.67;;;-10.90;99.90;;;;;;5115389;28;20020;-63
2021/11/29 00:09:19;;;;;;;1.90;1.80;;;-10.80;99.90;;;;;;5115229;28;20027;-63
2021/11/29 00:11:45;;;;;;;2.30;1.80;;;-10.80;99.90;;;;;;5115094;28;20527;-63
2021/11/29 00:14:11;;;;;;;2.00;1.80;;;-10.80;99.90;;;;;;5114919;28;20041;-64
2021/11/29 00:16:37;;;;;;;2.00;1.85;;;-10.80;99.90;;;;;;5114910;28;20023;-63
2021/11/29 00:19:05;;;;;;;2.20;1.80;;;-10.80;99.90;;;;;;5114879;28;20027;-63
2021/11/29 00:21:34;;;;;;;1.80;1.70;;;-10.80;99.90;;;;;;5114923;28;20023;-63
2021/11/29 00:24:01;;;;;;;1.63;1.53;;;-10.80;99.90;;;;;;5104315;28;20403;-63
2021/11/29 00:26:27;;;;;;;2.08;1.60;;;-10.70;99.90;;;;;;5096684;28;20024;-63
2021/11/29 00:28:53;;;;;;;2.67;2.08;;;-10.70;99.90;;;;;;5114726;28;20026;-63
2021/11/29 00:31:19;;;;;;;1.73;1.63;;;-10.70;99.90;;;;;;5114608;28;20031;-63
2021/11/29 00:33:45;;;;;;;2.05;1.75;;;-10.60;99.90;;;;;;5114834;28;20011;-63
2021/11/29 00:36:11;;;;;;;2.50;1.58;;;-10.60;99.90;;;;;;5101792;28;20055;-63
2021/11/29 00:38:37;;;;;;;1.60;1.50;;;-10.60;99.90;;;;;;5098951;28;20376;-64
2021/11/29 00:41:03;;;;;;;1.80;1.70;;;-10.50;99.90;;;;;;5114497;28;20036;-63
2021/11/29 00:43:29;;;;;;;1.70;1.60;;;-10.50;99.90;;;;;;5113996;28;20044;-63
2021/11/29 00:45:55;;;;;;;1.83;1.70;;;-10.40;99.90;;;;;;5113302;28;20353;-63
2021/11/29 00:48:20;;;;;;;1.63;1.52;;;-10.40;99.90;;;;;;5114038;28;20148;-64
2021/11/29 00:50:46;;;;;;;1.98;1.77;;;-10.40;99.90;;;;;;5114361;28;20403;-64
2021/11/29 00:53:12;;;;;;;2.22;2.03;;;-10.40;99.90;;;;;;5114182;28;20023;-63
2021/11/29 00:55:39;;;;;;;1.67;1.58;;;-10.40;99.90;;;;;;5114238;28;20042;-64
2021/11/29 00:58:06;;;;;;;1.60;1.50;;;-10.40;99.90;;;;;;5114089;28;20090;-64
2021/11/29 01:00:34;;;;;;;2.40;1.70;;;-10.40;99.90;;;;;;5113750;28;20760;-64
2021/11/29 01:03:01;;;;;;;1.52;1.40;;;-10.40;99.90;;;;;;5113869;28;20047;-64
2021/11/29 01:05:27;;;;;;;3.47;2.13;;;-10.40;99.90;;;;;;5099433;28;20480;-65
2021/11/29 01:07:53;;;;;;;2.20;1.58;;;-10.40;99.90;;;;;;5114131;28;20066;-64
2021/11/29 01:10:19;;;;;;;2.17;1.65;;;-10.50;99.90;;;;;;5114053;28;20469;-64
2021/11/29 01:12:46;;;;;;;1.95;1.50;;;-10.50;99.90;;;;;;5113785;28;20088;-64
2021/11/29 01:15:16;;;;;;;1.83;1.50;;;-10.50;99.90;;;;;;5114032;28;20089;-64
2021/11/29 01:17:42;;;;;;;1.65;1.55;;;-10.50;99.90;;;;;;5114116;28;20051;-63
2021/11/29 01:20:09;;;;;;;1.75;1.60;;;-10.50;99.90;;;;;;5113926;28;20062;-64
2021/11/29 01:22:35;;;;;;;2.28;1.98;;;-10.50;99.90;;;;;;5100895;28;20112;-64
2021/11/29 01:25:02;;;;;;;1.77;1.55;;;-10.50;99.90;;;;;;5098217;28;20098;-64
2021/11/29 01:27:27;;;;;;;2.63;1.67;;;-10.50;99.90;;;;;;5113533;28;20026;-64
2021/11/29 01:29:53;;;;;;;1.77;1.67;;;-10.50;99.90;;;;;;5113751;28;20027;-64
2021/11/29 01:32:19;;;;;;;2.03;1.60;;;-10.50;99.90;;;;;;5113417;28;20080;-64
2021/11/29 01:34:44;;;;;;;1.92;1.60;;;-10.50;99.90;;;;;;5099295;28;20020;-64
2021/11/29 01:37:10;;;;;;;1.77;1.67;;;-10.50;99.90;;;;;;5113433;28;20095;-64
2021/11/29 01:39:36;;;;;;;4.28;1.65;;;-10.60;99.90;;;;;;5113183;28;20121;-64
2021/11/29 01:42:03;;;;;;;3.17;1.83;;;-10.60;99.90;;;;;;5108452;28;20086;-65
2021/11/29 01:44:28;;;;;;;1.77;1.63;;;-10.50;99.90;;;;;;5096165;28;20038;-64
2021/11/29 01:46:54;;;;;;;2.00;1.80;;;-10.60;99.90;;;;;;5113425;28;20455;-63
2021/11/29 01:49:20;;;;;;;1.80;1.70;;;-10.50;99.90;;;;;;5113156;28;20511;-63
2021/11/29 01:51:46;;;;;;;1.75;1.58;;;-10.50;99.90;;;;;;5113129;28;20039;-64
2021/11/29 01:54:11;;;;;;;1.77;1.65;;;-10.50;99.90;;;;;;5113057;28;20069;-63
2021/11/29 01:56:38;;;;;;;2.90;1.60;;;-10.50;99.90;;;;;;5112757;28;20095;-63
2021/11/29 01:59:05;;;;;;;1.55;1.40;;;-10.50;99.90;;;;;;5112678;28;20047;-63
2021/11/29 02:01:32;;;;;;;1.77;1.67;;;-10.50;99.90;;;;;;5112763;27;20031;-63
2021/11/29 02:03:59;;;;;;;1.45;1.35;;;-10.50;99.90;;;;;;5112653;28;20110;-63
2021/11/29 02:06:30;;;;;;;3.75;1.67;;;-10.50;99.90;;;;;;5112912;28;20030;-63
2021/11/29 02:08:56;;;;;;;1.75;1.65;;;-10.50;99.90;;;;;;5112817;28;20506;-63
2021/11/29 02:11:24;;;;;;;1.83;1.65;;;-10.50;99.90;;;;;;5112528;28;20020;-64
2021/11/29 02:13:50;;;;;;;1.75;1.65;;;-10.50;99.90;;;;;;5112505;28;20502;-64
2021/11/29 02:16:17;;;;;;;2.72;1.45;;;-10.50;99.90;;;;;;5112627;28;20028;-64
2021/11/29 02:18:43;;;;;;;2.22;1.60;;;-10.50;99.90;;;;;;5112514;28;20098;-64
2021/11/29 02:21:18;;;;;;;2.35;1.73;;;-10.50;99.90;;;;;;5112558;28;20098;-64
2021/11/29 02:23:50;;;;;;;1.88;1.77;;;-10.40;99.90;;;;;;5112514;28;20551;-64
2021/11/29 02:55:19;;;;;;;1.77;1.67;;;-10.10;99.90;;;;;;5111692;28;20032;-65
2021/11/29 02:57:45;;;;;;;4.20;2.00;;;-10.10;99.90;;;;;;5111752;28;20073;-65
2021/11/29 03:00:11;;;;;;;1.83;1.73;;;-10.00;99.90;;;;;;5111872;28;20359;-64
2021/11/29 03:02:37;;;;;;;2.80;1.83;;;-9.90;99.90;;;;;;5111864;28;20050;-64
2021/11/29 03:05:04;;;;;;;1.90;1.77;;;-9.90;99.90;;;;;;5111985;28;20471;-64
2021/11/29 03:07:30;;;;;;;1.98;1.88;;;-9.80;99.90;;;;;;5111471;28;20027;-64
2021/11/29 03:09:57;;;;;;;2.33;2.08;;;-9.80;99.90;;;;;;5112083;28;20110;-64
2021/11/29 03:12:23;;;;;;;5.53;2.20;;;-9.80;99.90;;;;;;5111625;28;20107;-63
2021/11/29 03:14:49;;;;;;;2.58;1.95;;;-9.80;99.90;;;;;;5112118;28;20110;-64
2021/11/29 03:17:15;;;;;;;3.92;2.00;;;-9.70;99.90;;;;;;5111725;28;20387;-64
2021/11/29 03:19:42;;;;;;;2.42;1.88;;;-9.70;99.90;;;;;;5111781;28;20015;-65
2021/11/29 03:22:10;;;;;;;2.53;2.13;;;-9.70;99.90;;;;;;5111727;28;20028;-65
2021/11/29 03:24:38;;;;;;;2.47;1.90;;;-9.70;99.90;;;;;;5094986;28;20028;-65
2021/11/29 03:27:05;;;;;;;2.22;1.77;;;-9.60;99.90;;;;;;5091591;28;20107;-65
2021/11/29 03:29:31;;;;;;;2.17;1.98;;;-9.70;99.90;;;;;;5106446;28;20032;-65
2021/11/29 03:32:02;;;;;;;2.25;2.05;;;-9.70;99.90;;;;;;5111653;28;20387;-65
2021/11/29 03:34:29;;;;;;;3.03;2.00;;;-9.70;99.90;;;;;;5110167;28;20551;-65
2021/11/29 03:36:55;;;;;;;2.08;1.88;;;-9.70;99.90;;;;;;5111671;28;20032;-65
2021/11/29 03:39:24;;;;;;;1.80;1.70;;;-9.60;99.90;;;;;;5111707;28;20031;-65
2021/11/29 03:41:55;;;;;;;3.28;2.13;;;-9.60;99.90;;;;;;5111905;28;20027;-65
2021/11/29 03:44:22;;;;;;;2.70;2.03;;;-9.60;99.90;;;;;;5111415;28;20550;-65
2021/11/29 03:46:49;;;;;;;2.40;2.15;;;-9.50;99.90;;;;;;5111713;28;20068;-65
2021/11/29 03:49:15;;;;;;;2.20;2.00;;;-9.50;99.90;;;;;;5111653;28;20023;-65
2021/11/29 03:51:41;;;;;;;2.55;2.10;;;-9.40;99.90;;;;;;5111326;28;20056;-65
2021/11/29 03:54:08;;;;;;;2.85;1.88;;;-9.40;99.90;;;;;;5111392;28;20051;-65
2021/11/29 03:56:34;;;;;;;2.63;1.90;;;-9.40;99.90;;;;;;5111468;28;20487;-65
2021/11/29 03:59:00;;;;;;;1.95;1.77;;;-9.30;99.90;;;;;;5111378;28;20074;-65
2021/11/29 04:01:26;;;;;;;2.35;2.15;;;-9.30;99.90;;;;;;5111592;28;20063;-65
2021/11/29 04:03:52;;;;;;;2.55;1.80;;;-9.20;99.90;;;;;;5111411;28;20443;-65
2021/11/29 04:06:18;;;;;;;3.35;2.15;;;-9.20;99.90;;;;;;5111425;28;20015;-66
2021/11/29 04:08:44;;;;;;;2.05;1.90;;;-9.20;99.90;;;;;;5111612;28;20360;-66
2021/11/29 04:11:10;;;;;;;3.17;2.03;;;-9.20;99.90;;;;;;5111352;28;20027;-66
2021/11/29 04:13:36;;;;;;;2.10;1.90;;;-9.10;99.90;;;;;;5111209;28;20030;-66
2021/11/29 04:16:02;;;;;;;2.55;1.85;;;-9.20;99.90;;;;;;5097097;28;20024;-66
2021/11/29 04:18:28;;;;;;;3.10;2.00;;;-9.20;99.90;;;;;;5103126;28;20020;-66
2021/11/29 04:20:56;;;;;;;2.67;1.58;;;-9.20;99.90;;;;;;5092931;28;20386;-66
2021/11/29 04:23:22;;;;;;;2.70;1.90;;;-9.20;99.90;;;;;;5094321;28;20468;-66
2021/11/29 04:25:57;;;;;;;2.08;1.80;;;-9.10;99.90;;;;;;5094485;28;20074;-66
2021/11/29 04:28:23;;;;;;;2.60;2.10;;;-9.20;99.90;;;;;;5099854;28;20026;-66
2021/11/29 04:30:49;;;;;;;3.17;2.10;;;-9.20;99.90;;;;;;5114700;28;20055;-66
2021/11/29 04:33:15;;;;;;;3.00;2.30;;;-9.20;99.90;;;;;;5114842;28;20050;-65
2021/11/29 04:35:40;;;;;;;3.47;2.25;;;-9.20;99.90;;;;;;5114632;28;20094;-64
2021/11/29 04:38:06;;;;;;;2.65;2.05;;;-9.10;99.90;;;;;;5100165;28;20574;-64
2021/11/29 04:40:32;;;;;;;2.40;2.10;;;-9.10;99.90;;;;;;5114510;28;20020;-64
2021/11/29 04:42:58;;;;;;;3.65;2.08;;;-9.00;99.90;;;;;;5114423;28;20044;-64
2021/11/29 04:45:24;;;;;;;6.10;2.00;;;-9.00;99.90;;;;;;5114310;28;20012;-64
2021/11/29 04:47:50;;;;;;;2.72;2.25;;;-9.00;99.90;;;;;;5114598;28;20019;-64
2021/11/29 04:50:16;;;;;;;2.38;2.15;;;-8.90;99.90;;;;;;5114484;28;20016;-64
2021/11/29 04:52:42;;;;;;;2.67;2.03;;;-8.90;99.90;;;;;;5114304;28;20012;-64
2021/11/29 04:55:11;;;;;;;2.08;1.75;;;-8.90;99.90;;;;;;5114472;28;20110;-64
2021/11/29 04:57:37;;;;;;;2.10;1.77;;;-8.90;99.90;;;;;;5113785;28;20023;-65
2021/11/29 05:00:06;;;;;;;2.72;2.00;;;-8.80;99.90;;;;;;5114350;28;20031;-65
2021/11/29 05:02:32;;;;;;;2.45;1.95;;;-8.80;99.90;;;;;;5113717;28;20086;-65
2021/11/29 05:04:58;;;;;;;4.88;2.15;;;-8.80;99.90;;;;;;5114216;28;20489;-64
2021/11/29 05:07:25;;;;;;;2.08;1.80;;;-8.80;99.90;;;;;;5114048;28;20471;-64
2021/11/29 05:09:51;;;;;;;2.13;1.92;;;-8.80;99.90;;;;;;5113095;28;20028;-64
2021/11/29 05:12:17;;;;;;;3.45;1.90;;;-8.80;99.90;;;;;;5100483;28;20031;-65
2021/11/29 05:14:46;;;;;;;6.70;2.13;;;-8.80;99.90;;;;;;5112991;28;20642;-65
2021/11/29 05:17:12;;;;;;;4.20;2.17;;;-8.80;99.90;;;;;;5113836;28;20023;-65
2021/11/29 05:19:38;;;;;;;2.70;2.28;;;-8.80;99.90;;;;;;5113464;28;20382;-65
2021/11/29 05:22:04;;;;;;;2.70;2.33;;;-8.80;99.90;;;;;;5113901;28;20024;-65
2021/11/29 05:24:30;;;;;;;3.28;2.20;;;-8.80;99.90;;;;;;5113541;28;20099;-65
2021/11/29 05:26:56;;;;;;;2.55;2.10;;;-8.80;99.90;;;;;;5106108;28;20030;-65
2021/11/29 05:29:22;;;;;;;3.70;2.05;;;-8.70;99.90;;;;;;5107163;28;20023;-65
2021/11/29 05:31:48;;;;;;;2.30;2.10;;;-8.80;99.90;;;;;;5113002;28;20030;-65
2021/11/29 05:34:14;;;;;;;4.80;2.20;;;-8.80;99.90;;;;;;5113409;28;20027;-64
2021/11/29 05:36:40;;;;;;;3.67;2.50;;;-8.80;99.90;;;;;;5113257;28;20019;-64
2021/11/29 05:39:06;;;;;;;3.75;2.72;;;-8.80;99.90;;;;;;5113564;28;20039;-63
2021/11/29 05:41:32;;;;;;;4.22;2.05;;;-8.80;99.90;;;;;;5111467;28;20367;-63
2021/11/29 05:43:58;;;;;;;4.20;2.40;;;-7.90;99.90;;;;;;5098821;28;20046;-64
2021/11/29 05:46:24;;;;;;;3.92;2.35;;;-7.40;99.90;;;;;;5103644;28;20019;-63
2021/11/29 05:48:51;;;;;;;4.80;2.40;;;-7.60;99.90;;;;;;5102396;28;20031;-64
2021/11/29 05:51:18;;;;;;;6.05;2.28;;;-7.80;99.90;;;;;;5095438;28;20016;-64
2021/11/29 05:53:44;;;;;;;4.32;2.22;;;-8.10;99.90;;;;;;5098122;28;20507;-64
2021/11/29 05:56:10;;;;;;;5.60;2.35;;;-8.40;99.90;;;;;;5095129;28;20150;-65
2021/11/29 05:58:37;;;;;;;4.95;2.20;;;-8.60;99.90;;;;;;5093372;28;20127;-64
2021/11/29 06:01:06;;;;;;;6.05;3.13;;;-8.70;99.90;;;;;;5095434;28;20101;-65
2021/11/29 06:03:31;;;;;;;11.15;3.72;;;-8.30;99.90;;;;;;5094169;28;20040;-65
2021/11/29 06:05:57;;;;;;;3.72;2.50;;;-8.00;99.90;;;;;;5102663;28;20031;-65
2021/11/29 06:08:23;;;;;;;8.30;3.83;;;-8.20;99.90;;;;;;5100209;28;20020;-65
2021/11/29 06:10:49;;;;;;;8.20;4.55;;;-8.30;99.90;;;;;;5104364;28;20047;-65
2021/11/29 06:13:15;;;;;;;6.07;4.00;;;-8.30;99.90;;;;;;5099505;28;20055;-65
2021/11/29 06:15:42;;;;;;;5.03;3.15;;;-8.30;99.90;;;;;;5111142;28;20024;-64
2021/11/29 06:18:08;;;;;;;9.18;3.30;;;-8.30;99.90;;;;;;5093596;28;20059;-64
2021/11/29 06:20:34;;;;;;;14.80;2.58;;;-8.30;99.90;;;;;;5095375;28;20048;-64
2021/11/29 06:23:00;;;;;;;5.38;2.47;;;-8.40;99.90;;;;;;5096329;28;20066;-65
2021/11/29 06:25:26;;;;;;;6.22;2.30;;;-8.50;99.90;;;;;;5101419;28;20023;-63
2021/11/29 06:27:54;;;;;;;3.55;2.17;;;-8.50;99.90;;;;;;5103323;28;20111;-64
2021/11/29 06:30:21;;;;;;;5.60;2.80;;;-8.50;99.90;;;;;;5105184;28;20027;-64
2021/11/29 06:32:47;;;;;;;6.70;2.55;;;-8.40;99.90;;;;;;5099571;28;20490;-65
2021/11/29 06:35:15;;;;;;;3.70;2.47;;;-8.40;99.90;;;;;;5105628;28;20085;-64
2021/11/29 06:37:45;;;;;;;4.82;2.42;;;-8.10;99.90;;;;;;5112262;28;20042;-64
2021/11/29 06:40:11;;;;;;;;;;;-7.80;99.90;;;;;;5106061;28;20023;-64
2021/11/29 06:42:37;;;;;;;6.95;3.05;;;-7.80;99.90;;;;;;5111125;28;19915;-64
2021/11/29 06:45:03;;;;;;;6.45;3.30;;;-7.90;99.90;;;;;;5112066;28;20088;-64
2021/11/29 06:47:29;;;;;;;4.38;2.85;;;-7.90;99.90;;;;;;5112044;28;20027;-64
2021/11/29 06:49:55;;;;;;;8.88;3.72;;;-8.00;99.90;;;;;;5112242;28;20076;-64
2021/11/29 06:52:21;;;;;;;10.32;3.55;;;-8.00;99.90;;;;;;5112001;28;20039;-64
2021/11/29 06:54:49;;;;;;;8.95;4.03;;;-8.00;99.90;;;;;;5112015;28;20064;-64
2021/11/29 06:57:16;;;;;;;5.82;3.50;;;-8.10;99.90;;;;;;5108043;28;20047;-64
2021/11/29 06:59:43;;;;;;;5.22;2.75;;;-8.00;99.90;;;;;;5108026;28;20043;-65
2021/11/29 07:02:10;;;;;;;7.88;3.30;;;-7.60;99.90;;;;;;5111600;28;20491;-64
2021/11/29 07:04:36;;;;;;;6.68;3.25;;;-7.40;99.90;;;;;;5101013;28;20026;-64
2021/11/29 07:07:02;;;;;;;9.38;3.75;;;-7.50;99.90;;;;;;5112188;28;20019;-64
2021/11/29 07:09:28;;;;;;;7.68;3.60;;;-7.70;99.90;;;;;;5111618;28;20424;-64
2021/11/29 07:11:54;;;;;;;8.65;2.97;;;-7.70;99.90;;;;;;5109586;28;20031;-65
2021/11/29 07:14:20;;;;;;;6.60;3.22;;;-7.80;99.90;;;;;;5109856;28;20028;-65
2021/11/29 07:16:48;;;;;;;8.60;3.60;;;-7.80;99.90;;;;;;5110175;28;20049;-64
2021/11/29 07:19:17;;;;;;;4.82;3.15;;;-7.90;99.90;;;;;;5106478;28;20558;-64
2021/11/29 07:21:45;;;;;;;4.40;3.22;;;-7.90;99.90;;;;;;5097294;28;20055;-64
2021/11/29 07:24:12;;;;;;;16.48;3.03;;;-8.00;99.90;;;;;;5109816;28;20776;-63
2021/11/29 07:26:42;;;;;;;5.35;2.85;;;-8.00;99.90;;;;;;5108418;28;20364;-64
2021/11/29 07:29:08;;;;;;;7.85;3.10;;;-8.00;99.90;;;;;;5111146;28;20028;-64
2021/11/29 07:31:34;;;;;;;6.60;3.00;;;-8.00;99.90;;;;;;5109937;28;20433;-64
2021/11/29 07:34:00;;;;;;;5.30;2.75;;;-8.00;99.90;;;;;;5111179;28;20015;-64
2021/11/29 07:36:26;;;;;;;4.50;2.45;;;-8.00;99.90;;;;;;5110787;28;20126;-64
2021/11/29 07:38:52;;;;;;;5.63;2.63;;;-8.00;99.90;;;;;;5110856;28;20104;-63
2021/11/29 07:41:18;;;;;;;4.10;2.58;;;-8.10;99.90;;;;;;5111149;28;20106;-63
2021/11/29 07:43:43;;;;;;;5.50;2.58;;;-8.10;99.90;;;;;;5110804;28;20047;-64
2021/11/29 07:46:09;;;;;;;5.07;2.53;;;-8.10;99.90;;;;;;5104960;28;20136;-65
2021/11/29 07:48:35;;;;;;;3.25;2.53;;;-8.10;99.90;;;;;;5097490;28;20112;-65
2021/11/29 07:51:01;;;;;;;4.88;2.80;;;-8.10;99.90;;;;;;5111374;28;20027;-64
2021/11/29 07:53:26;;;;;;;5.65;3.13;;;-8.20;99.90;;;;;;5111095;28;20379;-64
2021/11/29 07:55:53;;;;;;;7.20;2.95;;;-8.10;99.90;;;;;;5110757;28;20034;-64
2021/11/29 07:58:21;;;;;;;4.93;2.88;;;-8.10;99.90;;;;;;5107074;28;20036;-63
2021/11/29 08:00:48;;;;;;;8.23;3.15;;;-8.10;99.90;;;;;;5102007;28;20031;-63
2021/11/29 08:03:14;;;;;;;4.30;2.80;;;-8.10;99.90;;;;;;5113142;28;20071;-64
2021/11/29 08:05:40;;;;;;;4.07;2.78;;;-8.10;99.90;;;;;;5114590;28;20024;-64
2021/11/29 08:08:07;;;;;;;7.75;3.15;;;-8.10;99.90;;;;;;5100338;28;20028;-64
2021/11/29 08:10:36;;;;;;;5.45;3.05;;;-8.10;99.90;;;;;;5097925;28;20063;-63
2021/11/29 08:13:03;;;;;;;8.45;3.50;;;-8.10;99.90;;;;;;5097912;28;20024;-63
2021/11/29 08:15:29;;;;;;;11.07;3.42;;;-8.10;99.90;;;;;;5100237;28;20031;-64
2021/11/29 08:17:55;;;;;;;7.00;4.05;;;-8.10;99.90;;;;;;5097472;28;20032;-63
2021/11/29 08:20:24;;;;;;;7.80;4.22;;;-8.10;99.90;;;;;;5095607;28;20027;-62
2021/11/29 08:22:55;;;;;;;6.85;4.65;;;-8.10;99.90;;;;;;5095810;28;20498;-62
2021/11/29 08:25:21;;;;;;;7.40;4.80;;;-8.10;99.90;;;;;;5094172;28;20033;-62
2021/11/29 08:27:47;;;;;;;14.30;4.80;;;-8.10;99.90;;;;;;5095228;28;20094;-62
2021/11/29 08:30:15;;;;;;;11.93;4.32;;;-8.10;99.90;;;;;;5110249;28;20127;-62
2021/11/29 08:32:42;;;;;;;7.50;4.10;;;-8.10;99.90;;;;;;5095752;28;20024;-63
2021/11/29 08:35:10;;;;;;;5.63;3.67;;;-8.00;99.90;;;;;;5100838;28;20039;-62
2021/11/29 08:37:37;;;;;;;11.45;4.15;;;-8.00;99.90;;;;;;5096634;28;20024;-62
2021/11/29 08:40:03;;;;;;;6.00;3.60;;;-8.00;99.90;;;;;;5111791;28;20027;-62
2021/11/29 08:42:29;;;;;;;6.75;3.35;;;-8.00;99.90;;;;;;5112217;28;20080;-63
2021/11/29 08:44:56;;;;;;;7.15;4.00;;;-8.00;99.90;;;;;;5103530;28;20118;-63
2021/11/29 08:47:21;;;;;;;6.88;3.88;;;-8.10;99.90;;;;;;5111311;28;20034;-62
2021/11/29 08:49:47;;;;;;;9.75;3.50;;;-8.10;99.90;;;;;;5108016;28;20019;-62
2021/11/29 08:52:13;;;;;;;4.80;3.30;;;-8.10;99.90;;;;;;5102402;28;20023;-63
2021/11/29 08:54:40;;;;;;;6.20;3.00;;;-7.90;99.90;;;;;;5110393;28;20057;-62
2021/11/29 08:57:07;;;;;;;3.85;3.00;;;-6.20;99.90;;;;;;5099671;28;20480;-62
2021/11/29 08:59:33;;;;;;;4.28;3.08;;;-4.70;99.90;;;;;;5108365;28;20130;-64
2021/11/29 09:01:59;;;;;;;5.95;3.58;;;-4.60;99.90;;;;;;5114068;28;20111;-63
2021/11/29 09:04:25;;;;;;;19.00;5.90;;;-4.10;99.90;;;;;;5114032;28;20418;-63
2021/11/29 09:06:51;;;;;;;26.90;8.48;;;-4.90;99.90;;;;;;5111611;28;20145;-63
2021/11/29 09:09:16;;;;;;;27.55;8.23;;;-5.60;99.90;;;;;;5102537;27;20066;-63
2021/11/29 09:11:43;;;;;;;19.25;7.20;;;-6.20;99.90;;;;;;5102016;28;20101;-63
2021/11/29 09:14:10;;;;;;;16.48;6.22;;;-6.50;99.90;;;;;;5108344;28;20051;-63
2021/11/29 09:16:35;;;;;;;26.38;8.13;;;-6.90;99.90;;;;;;5100350;28;20020;-63
2021/11/29 09:19:01;;;;;;;31.63;9.98;;;-7.40;99.90;;;;;;5113632;28;20532;-63
2021/11/29 09:21:27;;;;;;;30.05;9.13;;;-7.70;99.90;;;;;;5113592;28;20020;-63
2021/11/29 09:23:53;;;;;;;33.88;10.60;;;-7.70;99.90;;;;;;5113955;28;20130;-63
2021/11/29 09:26:18;;;;;;;45.63;11.43;;;-7.80;99.90;;;;;;5113470;28;20027;-63
2021/11/29 09:28:45;;;;;;;47.80;10.80;;;-7.80;99.90;;;;;;5113443;28;20047;-63
2021/11/29 09:31:11;;;;;;;50.67;13.13;;;-7.80;99.90;;;;;;5104667;28;20110;-63
2021/11/29 09:33:38;;;;;;;53.85;13.80;;;-7.80;99.90;;;;;;5113221;28;20103;-63
2021/11/29 09:36:05;;;;;;;48.67;13.15;;;-7.80;99.90;;;;;;5113360;28;20028;-63
2021/11/29 09:38:32;;;;;;;46.08;13.35;;;-7.80;99.90;;;;;;5113499;28;20015;-63
2021/11/29 09:40:59;;;;;;;23.65;7.63;;;-7.70;99.90;;;;;;5113562;28;20168;-63
2021/11/29 09:43:25;;;;;;;23.85;7.20;;;-7.60;99.90;;;;;;5112947;28;20133;-63
2021/11/29 09:45:51;;;;;;;28.27;9.27;;;-4.40;99.90;;;;;;5110010;28;20023;-63
2021/11/29 09:48:20;;;;;;;18.83;7.35;;;-4.60;99.90;;;;;;5113379;27;20066;-63
2021/11/29 09:50:49;;;;;;;19.35;6.90;;;-5.30;99.90;;;;;;5113114;28;20027;-63
2021/11/29 09:53:17;;;;;;;15.52;6.57;;;-6.00;99.90;;;;;;5109039;28;20020;-63
2021/11/29 09:55:43;;;;;;;18.42;6.13;;;-6.40;99.90;;;;;;5099135;28;20028;-63
2021/11/29 09:58:09;;;;;;;15.10;5.80;;;-6.60;99.90;;;;;;5112793;28;20048;-63
2021/11/29 10:00:42;;;;;;;16.90;5.78;;;-6.70;99.90;;;;;;5112623;28;20036;-63
2021/11/29 10:03:08;;;;;;;14.48;5.85;;;-6.80;99.90;;;;;;5100324;28;20096;-64
2021/11/29 10:05:36;;;;;;;13.95;6.57;;;-6.90;99.90;;;;;;5106122;28;20019;-63
2021/11/29 10:08:29;;;;;;;11.45;5.55;;;-7.00;99.90;;;;;;5100008;28;20107;-63
2021/11/29 10:10:57;;;;;;;13.55;5.43;;;-7.10;99.90;;;;;;5103772;28;20106;-63
2021/11/29 10:13:24;;;;;;;13.25;6.10;;;-7.20;99.90;;;;;;5104217;28;20028;-63
2021/11/29 10:15:51;;;;;;;13.75;6.50;;;-7.30;99.90;;;;;;5106602;28;20019;-63
2021/11/29 10:18:29;;;;;;;9.27;4.32;;;-7.30;99.90;;;;;;5112406;28;20019;-63
2021/11/29 10:20:59;;;;;;;10.00;4.85;;;-6.30;99.90;;;;;;5112156;28;20035;-63
2021/11/29 10:23:36;;;;;;;13.45;4.25;;;-4.80;99.90;;;;;;5099047;28;20031;-62
2021/11/29 10:26:20;;;;;;;12.75;5.07;;;-4.20;99.90;;;;;;5099507;28;20023;-62
2021/11/29 10:28:50;;;;;;;14.57;4.80;;;-4.90;99.90;;;;;;5094010;28;20055;-62
2021/11/29 10:31:24;;;;;;;13.35;4.90;;;-5.70;99.90;;;;;;5107942;28;20031;-62
2021/11/29 10:34:00;;;;;;;12.95;4.97;;;-6.20;99.90;;;;;;5105163;27;20019;-61
2021/11/29 10:36:32;;;;;;;15.60;4.82;;;-6.60;99.90;;;;;;5113693;27;20035;-64
2021/11/29 10:39:00;;;;;;;10.85;5.18;;;-6.80;99.90;;;;;;5108386;28;20035;-64
2021/11/29 10:41:35;;;;;;;11.90;5.63;;;-7.00;99.90;;;;;;5101225;28;20566;-63
2021/11/29 10:44:03;;;;;;;13.48;5.18;;;-7.20;99.90;;;;;;5110091;28;20039;-64
2021/11/29 10:46:32;;;;;;;16.00;5.53;;;-7.30;99.90;;;;;;5111804;28;20028;-63
2021/11/29 10:49:03;;;;;;;12.70;4.97;;;-7.30;99.90;;;;;;5108968;28;20011;-63
2021/11/29 10:51:29;;;;;;;13.48;5.40;;;-7.40;99.90;;;;;;5111674;28;20050;-64
2021/11/29 10:53:58;;;;;;;11.95;5.10;;;-7.50;99.90;;;;;;5111299;28;20030;-63
2021/11/29 10:56:27;;;;;;;9.02;5.03;;;-7.50;99.90;;;;;;5110581;28;20157;-64
2021/11/29 10:58:55;;;;;;;13.60;5.15;;;-7.60;99.90;;;;;;5092972;28;20431;-64
2021/11/29 11:01:35;;;;;;;10.60;4.80;;;-7.60;99.90;;;;;;5093233;28;20035;-63
2021/11/29 11:04:01;;;;;;;11.23;5.82;;;-7.60;99.90;;;;;;5106210;28;20031;-64
2021/11/29 11:06:43;;;;;;;11.27;4.95;;;-7.70;99.90;;;;;;5091657;28;20115;-63
2021/11/29 11:09:23;;;;;;;12.02;4.97;;;-7.80;99.90;;;;;;5093070;28;20487;-63
2021/11/29 11:11:53;;;;;;;13.38;5.93;;;-7.90;99.90;;;;;;5094048;28;20499;-63
2021/11/29 11:14:30;;;;;;;7.00;4.57;;;-8.00;99.90;;;;;;5096870;28;20020;-63
2021/11/29 11:16:58;;;;;;;11.23;5.20;;;-8.00;99.90;;;;;;5108387;28;20095;-63
2021/11/29 11:19:26;;;;;;;11.68;5.20;;;-8.10;99.90;;;;;;5109784;28;20415;-63
2021/11/29 11:21:55;;;;;;;11.20;5.10;;;-8.10;99.90;;;;;;5108730;28;20077;-63
2021/11/29 11:24:33;;;;;;;12.57;5.55;;;-8.10;99.90;;;;;;5111733;28;20040;-63
2021/11/29 11:27:00;;;;;;;9.32;4.75;;;-8.10;99.90;;;;;;5111571;28;20035;-63
2021/11/29 11:29:36;;;;;;;11.18;5.68;;;-8.10;99.90;;;;;;5109718;28;20157;-63
2021/11/29 11:32:28;;;;;;;12.27;5.95;;;-8.20;99.90;;;;;;5115855;28;20054;-63
2021/11/29 11:35:13;;;;;;;15.80;5.32;;;-8.30;99.90;;;;;;5115225;28;20487;-63
2021/11/29 11:38:04;;;;;;;11.40;5.10;;;-8.40;99.90;;;;;;5103907;28;20028;-63
2021/11/29 11:40:34;;;;;;;12.50;5.60;;;-8.40;99.90;;;;;;5095414;28;20031;-63
2021/11/29 11:43:02;;;;;;;10.45;5.25;;;-8.50;99.90;;;;;;5115467;28;20050;-63
2021/11/29 11:45:32;;;;;;;14.52;6.10;;;-8.50;99.90;;;;;;5110358;28;20021;-63
2021/11/29 11:47:59;;;;;;;11.88;5.50;;;-8.50;99.90;;;;;;5105852;28;20084;-63
2021/11/29 11:50:29;;;;;;;13.18;6.60;;;-8.60;99.90;;;;;;5114618;28;20100;-63
2021/11/29 11:52:59;;;;;;;11.02;5.82;;;-8.60;99.90;;;;;;5115290;28;20028;-64
2021/11/29 11:55:32;;;;;;;10.75;4.72;;;-8.70;99.90;;;;;;5114874;28;20348;-64
2021/11/29 11:57:59;;;;;;;12.93;5.40;;;-8.70;99.90;;;;;;5094623;28;20044;-63
2021/11/29 12:00:36;;;;;;;18.42;5.43;;;-8.60;99.90;;;;;;5108766;28;20379;-63
2021/11/29 12:03:14;;;;;;;10.10;4.30;;;-8.70;99.90;;;;;;5101807;28;20038;-63
2021/11/29 12:05:58;;;;;;;15.30;5.63;;;-8.70;99.90;;;;;;5115195;28;20016;-63
2021/11/29 12:08:48;;;;;;;18.35;5.00;;;-8.70;99.90;;;;;;5115503;28;20031;-62
2021/11/29 12:11:23;;;;;;;12.18;5.13;;;-8.80;99.90;;;;;;5114897;28;20019;-61
2021/11/29 12:13:50;;;;;;;10.13;5.38;;;-8.80;99.90;;;;;;5114705;28;20040;-61
2021/11/29 12:16:35;;;;;;;17.02;5.28;;;-8.80;99.90;;;;;;5114840;28;20043;-62
2021/11/29 12:19:02;;;;;;;11.65;4.28;;;-8.80;99.90;;;;;;5114852;28;20059;-62
2021/11/29 12:21:35;;;;;;;10.88;4.70;;;-8.90;99.90;;;;;;5114881;28;20016;-61
2021/11/29 12:24:07;;;;;;;8.60;4.70;;;-8.90;99.90;;;;;;5114767;28;20032;-61
2021/11/29 12:26:45;;;;;;;14.20;4.72;;;-8.90;99.90;;;;;;5114743;28;20105;-61
2021/11/29 12:29:22;;;;;;;12.38;3.85;;;-8.20;99.90;;;;;;5114618;28;20497;-61
2021/11/29 12:31:57;;;;;;;10.95;5.32;;;-6.10;99.90;;;;;;5114470;28;20464;-61
2021/11/29 12:34:48;;;;;;;9.13;4.32;;;-5.70;99.90;;;;;;5114028;28;20035;-61
2021/11/29 12:37:19;;;;;;;16.35;5.40;;;-6.50;99.90;;;;;;5103050;28;20073;-61
2021/11/29 12:39:44;;;;;;;13.95;5.07;;;-7.20;99.90;;;;;;5112931;28;20051;-64
2021/11/29 12:42:20;;;;;;;11.10;5.65;;;-7.60;99.90;;;;;;5106051;27;20027;-63
2021/11/29 12:44:48;;;;;;;18.48;5.70;;;-7.90;99.90;;;;;;5108937;28;20028;-64
2021/11/29 12:47:38;;;;;;;12.20;5.13;;;-8.10;99.90;;;;;;5114246;28;20023;-63
2021/11/29 12:50:26;;;;;;;11.05;5.03;;;-8.30;99.90;;;;;;5114188;28;20086;-63
2021/11/29 12:52:52;;;;;;;14.10;4.57;;;-8.40;99.90;;;;;;5106653;28;20020;-64
2021/11/29 12:55:20;;;;;;;14.15;5.00;;;-8.60;99.90;;;;;;5093750;28;20027;-63
2021/11/29 12:58:06;;;;;;;10.13;4.65;;;-8.60;99.90;;;;;;5113816;28;20366;-61
2021/11/29 13:00:35;;;;;;;12.77;5.40;;;-8.70;99.90;;;;;;5092024;28;20039;-61
2021/11/29 13:03:03;;;;;;;13.52;5.88;;;-8.70;99.90;;;;;;5113683;28;20088;-61
2021/11/29 13:05:39;;;;;;;15.20;5.47;;;-8.80;99.90;;;;;;5100519;28;20115;-61
2021/11/29 13:08:20;;;;;;;12.00;5.72;;;-8.80;99.90;;;;;;5100275;28;20063;-61
2021/11/29 13:11:07;;;;;;;10.93;5.40;;;-8.90;99.90;;;;;;5113679;28;20029;-61
2021/11/29 13:13:38;;;;;;;15.73;5.97;;;-9.00;99.90;;;;;;5113956;28;20490;-61
2021/11/29 13:16:10;;;;;;;21.83;7.15;;;-9.00;99.90;;;;;;5113565;27;20032;-61